Time;durP1;ratioP1;P1;durP2;ratioP2;P2;SDS_P1;SDS_P2;PMS_P1;PMS_P2;Temp;Humidity;BMP_temperature;BMP_pressure;BME280_temperature;BME280_humidity;BME280_pressure;Samples;Min_cycle;Max_cycle;Signal;HPM_P1;HPM_P2
2021/05/15 00:01:07;;;;;;;18.23;16.42;;;;;;;11.78;79.46;100741.66;5114559;28;20027;-38
2021/05/15 00:03:33;;;;;;;18.30;16.58;;;;;;;11.85;79.12;100744.25;5113640;28;20084;-38
2021/05/15 00:05:59;;;;;;;17.42;15.73;;;;;;;11.88;78.46;100740.25;5113693;28;20123;-38
2021/05/15 00:08:25;;;;;;;18.37;16.50;;;;;;;11.86;77.97;100735.06;5113660;28;20060;-38
2021/05/15 00:10:51;;;;;;;17.77;16.15;;;;;;;11.85;77.85;100736.94;5113670;28;20024;-38
2021/05/15 00:13:17;;;;;;;17.77;15.57;;;;;;;11.84;77.72;100734.47;5113556;28;20081;-38
2021/05/15 00:15:43;;;;;;;;;;;;;;;11.91;76.15;100729.75;5114386;28;20367;-38
2021/05/15 00:18:08;;;;;;;16.27;14.63;;;;;;;11.75;76.68;100730.47;5113460;28;19912;-38
2021/05/15 00:20:34;;;;;;;17.43;15.53;;;;;;;11.74;76.50;100736.97;5113818;28;20038;-38
2021/05/15 00:22:59;;;;;;;16.90;15.07;;;;;;;11.71;76.76;100732.84;5113884;28;20532;-38
2021/05/15 00:25:24;;;;;;;16.87;15.00;;;;;;;11.72;76.45;100734.50;5114109;28;20024;-38
2021/05/15 00:27:49;;;;;;;16.90;15.07;;;;;;;11.69;76.15;100739.56;5113300;28;20056;-38
2021/05/15 00:30:16;;;;;;;16.33;14.37;;;;;;;11.70;76.22;100730.38;5114076;28;20100;-38
2021/05/15 00:32:42;;;;;;;14.85;13.32;;;;;;;11.63;75.78;100738.66;5113103;28;20031;-38
2021/05/15 00:35:08;;;;;;;14.93;13.32;;;;;;;11.64;75.97;100734.06;5112885;28;20070;-38
2021/05/15 00:37:34;;;;;;;13.98;12.57;;;;;;;11.59;76.03;100732.88;5113212;28;20106;-39
2021/05/15 00:40:00;;;;;;;15.38;13.43;;;;;;;11.50;75.65;100733.50;5116982;28;20367;-38
2021/05/15 00:42:26;;;;;;;17.30;13.30;;;;;;;11.55;76.03;100730.91;5117324;28;20038;-38
2021/05/15 00:44:51;;;;;;;13.90;12.50;;;;;;;11.47;76.08;100729.41;5117826;28;20028;-38
2021/05/15 00:47:21;;;;;;;15.00;12.83;;;;;;;11.48;75.77;100731.03;5117234;28;20285;-38
2021/05/15 00:49:49;;;;;;;16.73;13.65;;;;;;;11.51;75.62;100729.72;5117173;28;20032;-38
2021/05/15 00:52:15;;;;;;;13.65;12.25;;;;;;;11.50;75.80;100728.91;5116907;28;20034;-38
2021/05/15 00:54:42;;;;;;;13.88;12.40;;;;;;;11.45;76.26;100726.09;5117845;28;20428;-38
2021/05/15 00:57:10;;;;;;;13.98;12.50;;;;;;;11.40;76.39;100714.34;5116718;28;20433;-38
2021/05/15 00:59:36;;;;;;;16.55;13.52;;;;;;;11.42;76.27;100718.47;5117001;28;20061;-38
2021/05/15 01:02:03;;;;;;;15.32;12.75;;;;;;;11.42;75.58;100720.31;5117220;28;20028;-39
2021/05/15 01:04:28;;;;;;;;;;;;;;;11.53;74.59;100717.59;5117325;28;20027;-38
2021/05/15 01:06:53;;;;;;;18.23;12.90;;;;;;;11.40;75.74;100711.63;5116559;28;20386;-38
2021/05/15 01:09:19;;;;;;;14.82;12.57;;;;;;;11.44;75.31;100712.81;5117060;27;20024;-39
2021/05/15 01:11:45;;;;;;;14.27;12.87;;;;;;;11.44;75.35;100708.22;5117564;28;20023;-38
2021/05/15 01:14:10;;;;;;;15.02;13.50;;;;;;;11.41;75.95;100708.69;5116948;28;20258;-38
2021/05/15 01:16:36;;;;;;;18.08;13.70;;;;;;;11.41;75.38;100702.44;5116585;28;20512;-38
2021/05/15 01:19:03;;;;;;;16.42;13.25;;;;;;;11.37;75.67;100699.41;5117046;27;20114;-38
2021/05/15 01:21:28;;;;;;;16.63;14.00;;;;;;;11.26;76.29;100695.66;5115263;28;20039;-38
2021/05/15 01:23:53;;;;;;;17.90;13.60;;;;;;;11.33;76.00;100701.75;5117103;28;20051;-38
2021/05/15 01:26:21;;;;;;;15.53;13.93;;;;;;;11.32;75.58;100705.53;5116457;28;20111;-38
2021/05/15 01:28:51;;;;;;;15.05;13.00;;;;;;;11.24;76.05;100691.56;5117197;28;20059;-38
2021/05/15 01:31:16;;;;;;;14.43;12.50;;;;;;;11.27;76.49;100691.91;5116139;27;20511;-38
2021/05/15 01:33:41;;;;;;;17.87;14.23;;;;;;;11.22;75.79;100685.53;5116315;28;20038;-38
2021/05/15 01:36:07;;;;;;;14.40;12.57;;;;;;;11.24;75.74;100686.97;5116578;28;20281;-39
2021/05/15 01:38:33;;;;;;;15.68;13.35;;;;;;;11.16;76.14;100692.72;5116133;28;20473;-38
2021/05/15 01:41:03;;;;;;;17.48;13.18;;;;;;;11.16;76.17;100686.50;5116259;28;20081;-38
2021/05/15 01:43:29;;;;;;;17.70;13.15;;;;;;;11.09;76.47;100689.34;5116050;28;20016;-38
2021/05/15 01:45:54;;;;;;;16.43;13.40;;;;;;;11.12;76.31;100682.63;5116884;28;20103;-39
2021/05/15 01:48:19;;;;;;;16.07;13.67;;;;;;;11.06;76.58;100679.81;5116076;28;20081;-38
2021/05/15 01:51:00;;;;;;;15.00;12.77;;;;;;;11.02;76.76;100673.22;5115454;28;20111;-38
2021/05/15 01:53:27;;;;;;;17.08;13.07;;;;;;;10.98;77.08;100676.63;5115909;27;20030;-38
2021/05/15 01:55:54;;;;;;;17.77;14.10;;;;;;;10.93;76.76;100669.25;5116495;27;20023;-38
2021/05/15 01:58:19;;;;;;;16.42;13.90;;;;;;;10.93;76.63;100658.44;5115734;28;20391;-38
2021/05/15 02:00:45;;;;;;;16.20;12.80;;;;;;;10.98;76.37;100666.66;5115879;28;20035;-38
2021/05/15 02:03:10;;;;;;;17.73;13.75;;;;;;;10.93;76.84;100663.00;5115398;28;20030;-38
2021/05/15 02:05:36;;;;;;;15.60;13.37;;;;;;;10.82;76.47;100649.25;5116314;28;20452;-38
2021/05/15 02:08:01;;;;;;;16.80;13.67;;;;;;;10.86;76.77;100651.50;5115366;28;20080;-38
2021/05/15 02:10:26;;;;;;;16.13;14.43;;;;;;;10.88;76.22;100654.78;5116069;28;20112;-38
2021/05/15 02:12:52;;;;;;;16.43;13.90;;;;;;;10.78;76.46;100644.56;5115507;27;20075;-38
2021/05/15 02:15:17;;;;;;;16.10;14.40;;;;;;;10.78;76.18;100641.84;5116109;28;20039;-38
2021/05/15 02:17:42;;;;;;;16.60;14.60;;;;;;;10.73;76.31;100637.16;5115419;28;20028;-38
2021/05/15 02:20:08;;;;;;;19.13;15.30;;;;;;;10.70;76.46;100634.13;5115512;28;20463;-38
2021/05/15 02:22:34;;;;;;;18.30;14.93;;;;;;;10.57;76.61;100636.00;5115872;28;20027;-38
2021/05/15 02:24:59;;;;;;;17.10;14.60;;;;;;;10.56;77.23;100625.44;5115107;28;20485;-38
2021/05/15 02:27:24;;;;;;;18.63;14.80;;;;;;;10.50;76.63;100624.50;5114886;27;20048;-38
2021/05/15 02:29:50;;;;;;;18.30;14.70;;;;;;;10.37;76.82;100627.41;5114038;28;20031;-38
2021/05/15 02:32:15;;;;;;;16.73;14.93;;;;;;;10.28;77.64;100624.25;5115203;27;20030;-38
2021/05/15 02:34:40;;;;;;;19.40;15.70;;;;;;;10.31;77.28;100622.97;5114878;28;20360;-38
2021/05/15 02:37:05;;;;;;;19.23;14.60;;;;;;;10.22;78.40;100624.34;5115072;28;20028;-38
2021/05/15 02:39:31;;;;;;;20.10;15.73;;;;;;;10.16;77.73;100623.38;5114644;28;20019;-38
2021/05/15 02:41:56;;;;;;;19.77;15.77;;;;;;;10.16;77.91;100630.69;5114665;28;20035;-38
2021/05/15 02:44:21;;;;;;;20.70;16.77;;;;;;;10.16;78.43;100630.69;5115450;28;20126;-38
2021/05/15 02:46:47;;;;;;;18.93;15.17;;;;;;;10.10;77.69;100626.19;5114847;28;20036;-38
2021/05/15 02:49:12;;;;;;;21.03;16.73;;;;;;;10.07;77.95;100622.91;5114847;28;20027;-38
2021/05/15 02:51:37;;;;;;;19.50;15.63;;;;;;;9.97;78.00;100619.94;5114844;28;20146;-38
2021/05/15 02:54:03;;;;;;;20.20;16.60;;;;;;;9.98;78.50;100608.09;5114798;28;20043;-38
2021/05/15 02:56:29;;;;;;;21.63;16.08;;;;;;;10.00;78.61;100610.53;5114720;28;20023;-38
2021/05/15 02:58:54;;;;;;;20.83;16.17;;;;;;;10.01;78.34;100606.81;5114678;28;20332;-38
2021/05/15 03:01:19;;;;;;;22.20;17.03;;;;;;;10.00;79.08;100605.13;5114318;28;20031;-38
2021/05/15 03:03:46;;;;;;;21.80;15.60;;;;;;;9.98;78.64;100613.50;5115222;28;20034;-38
2021/05/15 03:06:11;;;;;;;;;;;;;;;10.13;76.99;100609.50;5114689;28;20487;-38
2021/05/15 03:08:36;;;;;;;19.60;16.20;;;;;;;9.98;79.07;100610.78;5115235;28;19981;-38
2021/05/15 03:11:02;;;;;;;19.50;15.30;;;;;;;10.06;79.21;100612.34;5114789;28;20292;-38
2021/05/15 03:13:28;;;;;;;22.07;16.70;;;;;;;10.00;79.25;100605.13;5114128;28;20028;-38
2021/05/15 03:15:53;;;;;;;;;;;;;;;10.18;77.62;100612.34;5114528;28;20019;-38
2021/05/15 03:18:18;;;;;;;20.43;15.67;;;;;;;10.02;79.16;100601.16;5113986;28;19911;-38
2021/05/15 03:20:44;;;;;;;22.17;16.37;;;;;;;9.99;78.50;100598.09;5114857;28;20020;-38
2021/05/15 03:23:09;;;;;;;21.48;16.90;;;;;;;9.98;79.25;100596.47;5113884;28;20023;-38
2021/05/15 03:25:34;;;;;;;22.00;17.27;;;;;;;9.94;78.95;100596.09;5114262;28;20038;-38
2021/05/15 03:28:00;;;;;;;20.77;16.27;;;;;;;9.97;78.92;100594.81;5114491;27;20056;-38
2021/05/15 03:30:25;;;;;;;20.17;16.73;;;;;;;10.03;79.07;100600.09;5114478;28;20080;-38
2021/05/15 03:32:50;;;;;;;25.17;17.00;;;;;;;9.99;78.86;100598.91;5114121;28;20031;-38
2021/05/15 03:35:19;;;;;;;22.83;16.97;;;;;;;10.01;79.16;100601.41;5114139;28;20019;-38
2021/05/15 03:37:44;;;;;;;20.88;16.33;;;;;;;9.93;78.21;100612.53;5113613;28;20106;-38
2021/05/15 03:40:10;;;;;;;21.40;16.77;;;;;;;10.03;78.51;100610.91;5114087;28;20108;-38
2021/05/15 03:42:35;;;;;;;22.05;17.23;;;;;;;10.06;79.16;100620.44;5114260;28;20098;-38
2021/05/15 03:45:01;;;;;;;19.75;16.48;;;;;;;9.99;78.82;100619.72;5114489;28;20052;-38
2021/05/15 03:47:26;;;;;;;18.60;16.63;;;;;;;9.93;79.23;100620.66;5113961;28;20234;-38
2021/05/15 03:49:52;;;;;;;21.15;16.20;;;;;;;9.97;78.82;100619.94;5114687;28;20254;-38
2021/05/15 03:52:17;;;;;;;21.73;17.03;;;;;;;9.94;78.67;100615.00;5113844;28;20023;-38
2021/05/15 03:54:42;;;;;;;20.23;16.17;;;;;;;9.96;78.59;100612.09;5113652;28;20253;-38
2021/05/15 03:57:08;;;;;;;22.33;17.00;;;;;;;9.98;78.49;100613.50;5113827;28;20024;-38
2021/05/15 03:59:33;;;;;;;21.80;17.00;;;;;;;9.96;78.51;100617.50;5114041;28;20024;-38
2021/05/15 04:01:58;;;;;;;19.80;16.70;;;;;;;9.99;78.62;100611.59;5114037;28;20062;-38
2021/05/15 04:04:24;;;;;;;19.33;15.83;;;;;;;9.97;79.07;100619.94;5113825;28;20438;-38
2021/05/15 04:06:49;;;;;;;19.53;16.00;;;;;;;10.00;79.44;100619.50;5113379;28;20042;-38
2021/05/15 04:09:14;;;;;;;19.63;16.13;;;;;;;10.04;78.21;100614.44;5113762;28;20075;-38
2021/05/15 04:11:40;;;;;;;22.97;15.97;;;;;;;9.96;78.62;100610.22;5113898;28;20027;-38
2021/05/15 04:19:14;;;;;;;22.30;16.98;;;;;;;9.93;79.39;100605.25;5117735;28;20118;-38
2021/05/15 04:21:40;;;;;;;20.53;16.63;;;;;;;10.03;78.80;100602.00;5117678;28;20106;-38
2021/05/15 04:24:06;;;;;;;23.03;17.27;;;;;;;9.97;79.19;100603.75;5118445;28;20265;-38
2021/05/15 04:26:31;;;;;;;20.05;16.20;;;;;;;9.96;79.32;100604.81;5117284;28;20123;-38
2021/05/15 04:28:57;;;;;;;20.95;16.23;;;;;;;10.02;78.59;100606.56;5118303;27;20399;-38
2021/05/15 04:31:22;;;;;;;18.43;15.67;;;;;;;10.02;79.02;100601.16;5117625;28;20030;-38
2021/05/15 04:33:47;;;;;;;19.80;16.60;;;;;;;10.10;79.46;100602.69;5118120;28;20019;-38
2021/05/15 04:36:13;;;;;;;22.83;16.90;;;;;;;9.96;79.21;100599.41;5117318;27;20463;-38
2021/05/15 04:38:38;;;;;;;19.23;16.20;;;;;;;10.00;78.78;100595.19;5117265;28;20019;-38
2021/05/15 04:41:03;;;;;;;23.40;16.67;;;;;;;9.99;79.02;100598.91;5117625;28;20035;-38
2021/05/15 04:43:29;;;;;;;22.43;16.80;;;;;;;10.05;78.95;100597.16;5117083;28;20038;-38
2021/05/15 04:45:55;;;;;;;20.03;16.10;;;;;;;9.98;79.12;100599.16;5117584;28;20016;-38
2021/05/15 04:48:21;;;;;;;20.88;16.52;;;;;;;9.93;78.70;100593.63;5117112;28;20332;-38
2021/05/15 04:50:46;;;;;;;20.60;16.43;;;;;;;9.93;78.96;100601.75;5117737;28;20065;-38
2021/05/15 04:53:11;;;;;;;20.63;16.97;;;;;;;10.02;79.20;100600.34;5117084;28;20035;-38
2021/05/15 04:55:37;;;;;;;18.73;15.63;;;;;;;10.07;78.87;100603.16;5117311;28;20027;-38
2021/05/15 04:58:02;;;;;;;22.30;17.10;;;;;;;10.05;79.43;100608.81;5117164;28;20027;-38
2021/05/15 05:00:28;;;;;;;20.03;17.33;;;;;;;9.99;78.95;100604.31;5116977;28;20053;-38
2021/05/15 05:02:53;;;;;;;19.55;16.20;;;;;;;10.01;79.51;100604.13;5116946;28;20063;-38
2021/05/15 05:05:19;;;;;;;20.67;17.05;;;;;;;10.04;79.51;100606.31;5117435;28;20024;-38
2021/05/15 05:07:44;;;;;;;21.05;16.70;;;;;;;10.00;79.50;100600.59;5117042;27;20032;-38
2021/05/15 05:10:10;;;;;;;23.47;17.67;;;;;;;10.06;79.25;100615.03;5117501;28;20027;-38
2021/05/15 05:12:36;;;;;;;24.33;17.65;;;;;;;9.96;79.28;100606.69;5116967;28;20075;-38
2021/05/15 05:15:02;;;;;;;20.90;17.43;;;;;;;9.93;79.60;100605.25;5117256;28;20027;-38
2021/05/15 05:17:28;;;;;;;;;;;;;;;10.14;78.24;100600.34;5117122;28;20323;-38
2021/05/15 05:19:53;;;;;;;23.40;16.60;;;;;;;10.03;79.77;100600.09;5117041;28;19915;-39
2021/05/15 05:22:19;;;;;;;23.27;17.67;;;;;;;10.08;78.87;100596.72;5116603;28;20436;-38
2021/05/15 05:24:45;;;;;;;21.35;17.45;;;;;;;10.07;79.44;100606.69;5116629;28;20031;-38
2021/05/15 05:27:11;;;;;;;22.05;16.67;;;;;;;10.09;79.38;100600.22;5116475;28;20079;-39
2021/05/15 05:29:36;;;;;;;24.83;17.35;;;;;;;10.03;80.17;100602.81;5116446;28;20055;-39
2021/05/15 05:32:02;;;;;;;23.60;18.47;;;;;;;10.10;80.16;100599.16;5116361;28;20031;-39
2021/05/15 05:34:28;;;;;;;22.50;18.27;;;;;;;10.10;79.50;100604.56;5116667;28;20031;-39
2021/05/15 05:36:54;;;;;;;25.13;18.80;;;;;;;10.10;80.17;100599.97;5116299;28;20360;-39
2021/05/15 05:39:20;;;;;;;27.25;18.08;;;;;;;10.11;79.62;100600.84;5116708;28;20104;-39
2021/05/15 05:41:47;;;;;;;26.27;20.35;;;;;;;10.16;79.68;100603.66;5114896;28;20077;-39
2021/05/15 05:44:12;;;;;;;22.70;18.00;;;;;;;10.21;79.66;100598.38;5114612;28;20039;-39
2021/05/15 05:46:38;;;;;;;25.33;18.70;;;;;;;10.20;79.76;100600.25;5116417;28;20031;-39
2021/05/15 05:49:04;;;;;;;25.70;19.08;;;;;;;10.07;80.85;100604.00;5116206;28;20108;-39
2021/05/15 05:51:29;;;;;;;26.63;18.95;;;;;;;10.11;80.64;100606.25;5116064;28;20028;-39
2021/05/15 05:53:54;;;;;;;24.47;19.13;;;;;;;10.12;81.12;100603.28;5116093;28;20036;-40
2021/05/15 05:56:20;;;;;;;24.27;17.77;;;;;;;10.17;80.63;100608.00;5116056;28;20020;-39
2021/05/15 05:58:46;;;;;;;23.80;18.40;;;;;;;10.17;79.38;100606.13;5115792;28;20110;-39
2021/05/15 06:01:13;;;;;;;21.80;18.48;;;;;;;10.20;79.62;100610.22;5116119;28;20104;-39
2021/05/15 06:03:39;;;;;;;21.15;18.48;;;;;;;10.15;79.06;100592.03;5115806;28;20035;-40
2021/05/15 06:06:04;;;;;;;21.52;18.42;;;;;;;10.21;79.60;100601.91;5115854;27;20054;-40
2021/05/15 06:08:29;;;;;;;21.17;17.97;;;;;;;10.30;78.97;100597.00;5115979;28;20032;-39
2021/05/15 06:10:55;;;;;;;20.67;18.13;;;;;;;10.24;79.59;100589.81;5116278;28;20031;-38
2021/05/15 06:13:20;;;;;;;23.70;17.80;;;;;;;10.34;79.44;100600.03;5115596;28;20521;-38
2021/05/15 06:15:46;;;;;;;23.35;18.33;;;;;;;10.39;78.28;100592.84;5115863;28;20421;-38
2021/05/15 06:18:12;;;;;;;25.98;19.52;;;;;;;10.45;78.03;100599.22;5115415;28;20019;-38
2021/05/15 06:20:37;;;;;;;25.30;19.08;;;;;;;10.46;78.21;100598.16;5115712;28;20114;-38
2021/05/15 06:23:03;;;;;;;26.85;19.30;;;;;;;10.48;78.95;100596.84;5115693;28;20024;-38
2021/05/15 06:25:28;;;;;;;24.83;19.23;;;;;;;10.52;78.29;100594.50;5115632;28;20494;-38
2021/05/15 06:27:53;;;;;;;26.33;19.75;;;;;;;10.54;78.11;100590.53;5115234;28;20101;-38
2021/05/15 06:30:19;;;;;;;27.43;21.23;;;;;;;10.64;77.54;100589.91;5115566;28;20027;-38
2021/05/15 06:32:45;;;;;;;25.92;20.42;;;;;;;10.65;77.21;100586.16;5115184;28;20548;-38
2021/05/15 06:35:10;;;;;;;24.00;19.70;;;;;;;10.78;77.13;100595.88;5114679;28;20420;-38
2021/05/15 06:37:37;;;;;;;24.85;20.83;;;;;;;10.83;77.08;100586.00;5114376;28;20080;-38
2021/05/15 06:40:04;;;;;;;28.38;22.42;;;;;;;10.85;76.79;100585.75;5114748;28;20070;-38
2021/05/15 06:42:29;;;;;;;31.75;22.13;;;;;;;10.84;76.90;100586.81;5113684;28;20436;-39
2021/05/15 06:44:54;;;;;;;28.97;23.80;;;;;;;10.77;76.44;100591.53;5115081;28;20110;-38
2021/05/15 06:47:20;;;;;;;27.03;22.30;;;;;;;10.77;76.31;100594.22;5114856;28;20032;-39
2021/05/15 06:49:45;;;;;;;26.97;21.20;;;;;;;10.83;75.79;100585.16;5115126;28;20133;-38
2021/05/15 06:52:11;;;;;;;28.17;22.13;;;;;;;10.96;75.61;100589.50;5113480;28;20077;-39
2021/05/15 06:54:37;;;;;;;28.88;21.58;;;;;;;11.08;74.99;100587.59;5115068;28;20038;-39
2021/05/15 06:57:03;;;;;;;27.35;23.55;;;;;;;11.17;75.81;100588.00;5114759;28;20517;-38
2021/05/15 06:59:28;;;;;;;27.13;22.77;;;;;;;11.33;75.99;100574.53;5114782;28;20038;-39
2021/05/15 07:01:53;;;;;;;27.47;21.80;;;;;;;11.58;74.89;100578.75;5114646;28;20375;-39
2021/05/15 07:04:19;;;;;;;27.43;22.20;;;;;;;11.68;73.83;100575.41;5114814;28;20019;-38
2021/05/15 07:06:44;;;;;;;25.40;22.00;;;;;;;11.84;73.09;100570.03;5114279;28;20059;-39
2021/05/15 07:09:10;;;;;;;24.98;21.52;;;;;;;11.94;71.42;100569.38;5114500;28;20490;-39
2021/05/15 07:11:35;;;;;;;24.02;21.35;;;;;;;11.98;71.17;100575.13;5115009;28;20023;-39
2021/05/15 07:14:01;;;;;;;22.77;19.83;;;;;;;11.97;71.08;100566.19;5114388;28;20028;-39
2021/05/15 07:16:26;;;;;;;20.37;18.17;;;;;;;12.00;68.78;100554.00;5114657;28;20139;-39
2021/05/15 07:18:51;;;;;;;20.73;17.93;;;;;;;11.99;68.82;100553.19;5113914;28;20031;-39
2021/05/15 07:21:17;;;;;;;19.63;17.63;;;;;;;12.10;68.57;100549.59;5114751;28;20115;-38
2021/05/15 07:23:42;;;;;;;23.30;19.52;;;;;;;12.25;68.49;100556.28;5114749;28;20020;-39
2021/05/15 07:26:10;;;;;;;22.70;18.60;;;;;;;12.29;68.25;100552.00;5114557;28;20428;-39
2021/05/15 07:28:36;;;;;;;20.50;18.30;;;;;;;12.27;67.68;100549.56;5114612;28;20083;-39
2021/05/15 07:31:01;;;;;;;20.98;16.58;;;;;;;12.41;66.44;100543.78;5114663;28;20082;-38
2021/05/15 07:33:27;;;;;;;30.43;18.83;;;;;;;12.53;67.85;100548.00;5114039;28;20024;-37
2021/05/15 07:35:52;;;;;;;20.63;18.40;;;;;;;12.65;66.72;100544.38;5114257;28;20023;-38
2021/05/15 07:38:19;;;;;;;20.90;16.23;;;;;;;12.71;65.41;100538.75;5113855;28;20386;-38
2021/05/15 07:40:44;;;;;;;17.90;16.00;;;;;;;12.77;63.86;100535.00;5113782;28;20260;-38
2021/05/15 07:43:09;;;;;;;23.67;16.17;;;;;;;12.78;65.42;100539.38;5113844;28;20028;-38
2021/05/15 07:45:35;;;;;;;19.80;16.60;;;;;;;12.62;64.76;100538.34;5114426;28;20031;-38
2021/05/15 07:48:00;;;;;;;19.77;16.37;;;;;;;12.51;64.43;100541.19;5113097;28;20273;-38
2021/05/15 07:50:27;;;;;;;22.30;16.58;;;;;;;12.38;64.05;100543.19;5116034;27;20022;-38
2021/05/15 07:52:53;;;;;;;19.55;16.30;;;;;;;12.31;64.67;100533.63;5134317;27;20041;-38
2021/05/15 07:55:18;;;;;;;19.80;16.73;;;;;;;12.28;66.95;100534.09;5130141;27;20023;-38
2021/05/15 07:57:44;;;;;;;18.90;15.75;;;;;;;12.30;65.93;100524.66;5113596;28;20102;-38
2021/05/15 08:00:10;;;;;;;20.73;16.67;;;;;;;12.26;65.67;100530.84;5114467;28;20035;-38
2021/05/15 08:02:36;;;;;;;19.48;17.38;;;;;;;12.27;66.46;100527.03;5112401;28;20425;-38
2021/05/15 08:05:02;;;;;;;19.05;16.55;;;;;;;12.24;65.75;100527.53;5113174;28;20111;-38
2021/05/15 08:07:29;;;;;;;18.27;15.85;;;;;;;12.34;66.58;100523.06;5114456;28;20081;-38
2021/05/15 08:09:55;;;;;;;19.33;17.30;;;;;;;12.30;66.47;100526.56;5114415;28;20028;-38
2021/05/15 08:12:20;;;;;;;13.80;12.35;;;;;;;12.52;66.01;100532.00;5114213;28;20068;-38
2021/05/15 08:14:45;;;;;;;24.43;17.03;;;;;;;12.34;64.92;100535.81;5113549;28;20036;-39
2021/05/15 08:17:11;;;;;;;22.70;17.27;;;;;;;12.36;66.06;100537.22;5119571;28;20028;-38
2021/05/15 08:19:36;;;;;;;19.40;17.00;;;;;;;12.28;65.51;100534.09;5121359;28;20479;-38
2021/05/15 08:22:01;;;;;;;20.17;16.70;;;;;;;12.27;65.98;100536.00;5113355;28;20031;-38
2021/05/15 08:24:27;;;;;;;20.23;17.77;;;;;;;12.25;66.57;100534.59;5113557;28;20082;-38
2021/05/15 08:26:52;;;;;;;21.30;17.20;;;;;;;12.27;65.93;100527.03;5114280;28;20026;-38
2021/05/15 08:29:20;;;;;;;21.67;18.10;;;;;;;12.42;65.33;100532.66;5113153;28;20860;-38
2021/05/15 08:31:46;;;;;;;20.27;17.33;;;;;;;12.71;66.61;100527.06;5114196;28;20441;-38
2021/05/15 08:34:11;;;;;;;20.63;17.42;;;;;;;12.93;64.12;100518.91;5113643;28;20024;-38
2021/05/15 08:36:36;;;;;;;19.27;16.50;;;;;;;13.11;62.55;100519.38;5112873;28;20050;-38
2021/05/15 08:39:05;;;;;;;21.53;16.70;;;;;;;13.35;61.31;100513.69;5113242;28;20102;-38
2021/05/15 08:41:31;;;;;;;19.83;17.77;;;;;;;13.57;62.35;100514.44;5113795;28;20046;-38
2021/05/15 08:44:00;;;;;;;23.20;17.42;;;;;;;13.65;60.84;100515.84;5112974;28;20479;-38
2021/05/15 08:46:27;;;;;;;21.70;16.48;;;;;;;13.74;61.23;100513.47;5113023;28;20039;-38
2021/05/15 08:48:53;;;;;;;18.50;15.48;;;;;;;13.58;60.00;100520.69;5113519;28;20059;-38
2021/05/15 08:51:18;;;;;;;;;;;;;;;13.65;61.53;100519.38;5113664;28;20039;-38
2021/05/15 08:53:44;;;;;;;18.53;16.20;;;;;;;13.40;60.69;100508.31;5113685;28;20271;-38
2021/05/15 08:56:10;;;;;;;22.23;17.77;;;;;;;13.36;60.58;100504.44;5113385;28;20615;-38
2021/05/15 08:58:38;;;;;;;17.63;15.82;;;;;;;13.45;61.15;100502.09;5112884;28;20020;-38
2021/05/15 09:01:10;;;;;;;19.10;16.83;;;;;;;13.44;60.28;100504.00;5116412;28;20027;-38
2021/05/15 09:03:35;;;;;;;19.20;16.73;;;;;;;13.39;61.08;100495.81;5116588;28;20020;-38
2021/05/15 09:06:01;;;;;;;20.47;17.30;;;;;;;13.41;61.95;100499.06;5117139;28;20423;-38
2021/05/15 09:08:26;;;;;;;21.00;17.77;;;;;;;13.53;63.88;100493.47;5116121;28;20288;-38
2021/05/15 09:10:51;;;;;;;20.67;17.33;;;;;;;13.63;60.40;100488.94;5116619;28;20024;-38
2021/05/15 09:13:26;;;;;;;20.05;17.85;;;;;;;13.92;62.23;100472.31;5116865;28;20262;-38
2021/05/15 09:15:58;;;;;;;23.25;19.08;;;;;;;14.32;60.92;100477.16;5116721;28;20065;-38
2021/05/15 09:18:25;;;;;;;20.48;17.65;;;;;;;14.65;59.71;100470.53;5116536;28;20028;-38
2021/05/15 09:20:53;;;;;;;21.23;16.88;;;;;;;14.91;57.54;100467.88;5116554;28;20023;-37
2021/05/15 09:23:20;;;;;;;19.70;16.75;;;;;;;15.25;57.66;100468.19;5116515;28;20023;-37
2021/05/15 09:25:56;;;;;;;15.88;14.15;;;;;;;15.35;57.74;100453.75;5116210;28;20479;-37
2021/05/15 09:28:36;;;;;;;17.05;14.63;;;;;;;15.28;57.55;100455.97;5116160;28;20092;-38
2021/05/15 09:31:20;;;;;;;18.98;14.52;;;;;;;15.12;57.44;100455.91;5117194;28;20089;-38
2021/05/15 09:33:52;;;;;;;20.10;15.07;;;;;;;15.14;55.52;100450.22;5116339;28;20494;-37
2021/05/15 09:36:38;;;;;;;17.92;15.15;;;;;;;15.10;56.92;100444.47;5116206;28;20108;-38
2021/05/15 09:39:18;;;;;;;19.88;15.52;;;;;;;14.90;56.37;100434.38;5116522;28;20042;-37
2021/05/15 09:41:45;;;;;;;18.00;15.40;;;;;;;14.75;56.52;100428.91;5115888;28;20412;-38
2021/05/15 09:44:16;;;;;;;18.50;15.68;;;;;;;14.62;56.84;100427.50;5116431;28;20023;-38
2021/05/15 09:46:45;;;;;;;20.75;15.38;;;;;;;14.49;56.51;100436.16;5116109;28;20100;-38
2021/05/15 09:49:10;;;;;;;19.20;14.90;;;;;;;14.43;58.01;100434.47;5115694;28;20391;-38
2021/05/15 09:51:37;;;;;;;18.60;15.60;;;;;;;14.23;57.54;100426.25;5115699;28;20032;-38
2021/05/15 09:54:21;;;;;;;18.80;15.45;;;;;;;14.11;59.10;100424.56;5115795;28;20532;-38
2021/05/15 09:57:09;;;;;;;19.98;16.30;;;;;;;13.96;60.06;100423.66;5116450;28;20034;-37
2021/05/15 09:59:45;;;;;;;18.80;15.82;;;;;;;13.95;60.05;100420.13;5116064;28;20117;-37
2021/05/15 10:02:13;;;;;;;19.25;15.25;;;;;;;14.17;59.53;100412.63;5115528;28;20133;-38
2021/05/15 10:04:42;;;;;;;18.30;15.73;;;;;;;14.23;59.90;100402.59;5115442;28;20027;-38
2021/05/15 10:07:20;;;;;;;17.10;15.30;;;;;;;14.40;58.44;100396.94;5115387;28;20020;-39
2021/05/15 10:09:46;;;;;;;17.77;15.13;;;;;;;14.58;58.53;100403.81;5116259;28;20344;-39
2021/05/15 10:12:12;;;;;;;18.45;15.88;;;;;;;14.94;57.55;100388.38;5114441;28;20034;-39
2021/05/15 10:14:37;;;;;;;16.57;14.00;;;;;;;14.99;57.48;100387.56;5116083;28;20038;-39
2021/05/15 10:17:03;;;;;;;16.27;12.97;;;;;;;15.10;56.74;100378.31;5115201;28;20023;-39
2021/05/15 10:19:29;;;;;;;13.38;11.48;;;;;;;15.23;56.98;100382.41;5115314;28;20034;-38
2021/05/15 10:21:55;;;;;;;12.55;10.88;;;;;;;15.14;57.31;100376.69;5115362;28;20164;-39
2021/05/15 10:24:32;;;;;;;11.10;9.85;;;;;;;14.91;55.15;100369.88;5115859;28;20031;-39
2021/05/15 10:26:59;;;;;;;11.63;10.43;;;;;;;14.68;56.87;100377.44;5115293;28;20030;-38
2021/05/15 10:29:43;;;;;;;10.23;8.40;;;;;;;14.44;57.27;100387.16;5115507;28;20054;-39
2021/05/15 10:32:21;;;;;;;11.25;10.05;;;;;;;14.17;58.25;100392.78;5115103;28;20030;-38
2021/05/15 10:34:48;;;;;;;8.98;7.20;;;;;;;13.81;62.63;100391.78;5115239;27;20032;-38
2021/05/15 10:37:23;;;;;;;7.90;6.82;;;;;;;13.48;64.73;100393.75;5122577;27;20549;-39
2021/05/15 10:39:49;;;;;;;8.57;6.82;;;;;;;13.37;67.62;100384.72;5135612;27;20144;-39
2021/05/15 10:42:27;;;;;;;8.63;7.72;;;;;;;13.51;67.10;100382.34;5131489;27;20118;-38
2021/05/15 10:44:52;;;;;;;6.75;6.05;;;;;;;13.72;65.62;100379.78;5135564;27;20112;-38
2021/05/15 10:47:18;;;;;;;5.85;4.10;;;;;;;14.04;64.56;100377.75;5135797;27;20462;-38
2021/05/15 10:49:45;;;;;;;5.40;4.40;;;;;;;14.41;63.15;100365.94;5135342;27;20059;-38
2021/05/15 10:52:19;;;;;;;6.03;4.78;;;;;;;14.50;61.52;100369.81;5135222;27;20034;-39
2021/05/15 10:54:51;;;;;;;5.93;5.30;;;;;;;14.56;62.31;100368.72;5135945;27;20184;-38
2021/05/15 10:57:24;;;;;;;6.35;4.82;;;;;;;14.55;61.91;100358.94;5135639;27;20053;-38
2021/05/15 11:00:09;;;;;;;6.88;5.35;;;;;;;14.56;61.33;100351.59;5135617;27;20031;-38
2021/05/15 11:02:39;;;;;;;6.70;4.47;;;;;;;14.52;61.86;100348.56;5135053;27;20051;-39
2021/05/15 11:05:12;;;;;;;6.35;5.18;;;;;;;14.56;63.84;100346.16;5135016;27;20087;-39
2021/05/15 11:07:40;;;;;;;7.18;5.28;;;;;;;14.75;62.87;100343.72;5134917;27;20033;-39
2021/05/15 11:10:08;;;;;;;6.72;5.60;;;;;;;15.15;61.53;100338.28;5134878;27;20043;-39
2021/05/15 11:12:44;;;;;;;5.65;4.95;;;;;;;15.44;59.55;100335.78;5134912;27;20023;-39
2021/05/15 11:15:12;;;;;;;6.68;5.68;;;;;;;15.60;58.90;100333.03;5135444;27;20091;-39